Time;durP1;ratioP1;P1;durP2;ratioP2;P2;SDS_P1;SDS_P2;PMS_P1;PMS_P2;Temp;Humidity;BMP_temperature;BMP_pressure;BME280_temperature;BME280_humidity;BME280_pressure;Samples;Min_cycle;Max_cycle;Signal;HPM_P1;HPM_P2
2022/11/29 00:00:46;;;;;;;7.00;6.27;;;;;;;6.28;100.00;99780.38;5111833;28;20718;-55
2022/11/29 00:03:13;;;;;;;7.30;6.60;;;;;;;6.35;100.00;99779.47;5111931;28;20196;-54
2022/11/29 00:05:40;;;;;;;6.43;5.90;;;;;;;6.36;100.00;99770.88;5111933;28;20198;-56
2022/11/29 00:08:07;;;;;;;8.13;7.33;;;;;;;6.38;100.00;99776.88;5111928;28;20226;-56
2022/11/29 00:10:37;;;;;;;7.23;6.53;;;;;;;6.26;100.00;99776.09;5111929;28;20225;-57
2022/11/29 00:13:04;;;;;;;8.00;7.20;;;;;;;6.25;100.00;99769.22;5112049;28;20668;-56
2022/11/29 00:15:35;;;;;;;7.77;6.73;;;;;;;6.28;100.00;99775.22;5109484;28;20661;-62
2022/11/29 00:18:02;;;;;;;8.57;7.67;;;;;;;6.34;100.00;99775.16;5111517;28;20235;-62
2022/11/29 00:20:29;;;;;;;8.57;7.50;;;;;;;6.19;100.00;99765.00;5099051;28;20203;-61
2022/11/29 00:22:55;;;;;;;7.23;6.57;;;;;;;6.18;100.00;99777.03;5091276;28;20199;-62
2022/11/29 00:25:22;;;;;;;8.60;7.70;;;;;;;6.18;100.00;99779.59;5091052;28;20195;-62
2022/11/29 00:27:51;;;;;;;8.57;7.67;;;;;;;6.17;100.00;99774.44;5091080;28;20200;-61
2022/11/29 00:30:18;;;;;;;6.50;5.90;;;;;;;6.19;100.00;99770.16;5091182;28;20233;-62
2022/11/29 00:32:45;;;;;;;6.80;6.20;;;;;;;6.16;100.00;99767.59;5090998;28;20200;-61
2022/11/29 00:35:12;;;;;;;6.90;6.30;;;;;;;6.07;100.00;99771.09;5090887;28;20199;-55
2022/11/29 00:37:39;;;;;;;5.40;4.97;;;;;;;6.16;100.00;99765.84;5091172;28;20750;-55
2022/11/29 00:40:07;;;;;;;7.03;6.33;;;;;;;6.18;100.00;99765.84;5090981;28;20202;-55
2022/11/29 00:42:34;;;;;;;7.27;6.57;;;;;;;6.23;100.00;99760.66;5090202;28;20202;-55
2022/11/29 00:45:02;;;;;;;6.60;6.00;;;;;;;6.24;100.00;99760.63;5090844;28;20199;-54
2022/11/29 00:47:29;;;;;;;7.50;6.80;;;;;;;6.07;100.00;99762.50;5090922;28;20199;-55
2022/11/29 00:49:56;;;;;;;7.60;6.27;;;;;;;6.16;100.00;99752.13;5091128;28;20218;-56
2022/11/29 00:52:23;;;;;;;9.43;6.80;;;;;;;6.15;100.00;99758.13;5090664;28;20205;-62
2022/11/29 00:54:50;;;;;;;6.90;6.20;;;;;;;6.12;100.00;99756.44;5090524;28;20199;-61
2022/11/29 00:57:16;;;;;;;6.30;5.80;;;;;;;6.15;100.00;99750.41;5090417;28;20644;-56
2022/11/29 00:59:43;;;;;;;6.13;5.63;;;;;;;6.06;100.00;99755.63;5090941;28;20192;-61
2022/11/29 01:02:12;;;;;;;7.37;6.67;;;;;;;6.18;100.00;99752.97;5090676;28;20286;-60
2022/11/29 01:04:39;;;;;;;7.50;6.80;;;;;;;6.00;100.00;99747.91;5090672;28;20205;-61
2022/11/29 01:07:05;;;;;;;7.57;6.83;;;;;;;5.92;100.00;99739.41;5090462;28;20676;-62
2022/11/29 01:09:32;;;;;;;6.43;5.93;;;;;;;6.09;100.00;99751.31;5089964;28;20215;-63
2022/11/29 01:11:59;;;;;;;7.13;6.53;;;;;;;6.19;100.00;99744.38;5090240;28;20708;-61
2022/11/29 01:14:26;;;;;;;6.83;6.13;;;;;;;6.21;100.00;99742.63;5108943;28;20310;-62
2022/11/29 01:16:53;;;;;;;6.80;6.20;;;;;;;6.24;100.00;99742.59;5110800;28;20194;-62
2022/11/29 01:19:21;;;;;;;7.23;6.53;;;;;;;6.28;100.00;99741.72;5110166;28;20546;-61
2022/11/29 01:21:48;;;;;;;6.90;6.27;;;;;;;6.28;100.00;99735.72;5110440;28;20195;-61
2022/11/29 01:24:15;;;;;;;7.60;6.90;;;;;;;6.15;100.00;99735.78;5110249;28;20230;-56
2022/11/29 01:26:42;;;;;;;7.67;6.97;;;;;;;6.18;100.00;99733.22;5110795;28;20583;-55
2022/11/29 01:29:12;;;;;;;8.70;7.57;;;;;;;6.16;100.00;99736.66;5110238;28;20285;-56
2022/11/29 01:31:39;;;;;;;8.90;7.97;;;;;;;6.21;100.00;99734.88;5110328;28;20712;-56
2022/11/29 01:34:07;;;;;;;10.43;8.83;;;;;;;6.23;100.00;99735.72;5110215;28;20191;-55
2022/11/29 01:36:35;;;;;;;10.97;9.57;;;;;;;6.13;100.00;99726.34;5110053;28;20772;-56
2022/11/29 01:39:05;;;;;;;12.87;9.77;;;;;;;6.24;100.00;99729.72;5110457;28;20829;-56
2022/11/29 01:41:34;;;;;;;12.80;9.87;;;;;;;6.08;100.00;99729.00;5110067;28;20589;-55
2022/11/29 01:44:03;;;;;;;12.53;10.00;;;;;;;6.14;100.00;99728.94;5110038;28;20289;-61
2022/11/29 01:46:32;;;;;;;13.60;10.63;;;;;;;6.12;100.00;99727.22;5110092;28;20198;-62
2022/11/29 01:49:03;;;;;;;13.37;10.00;;;;;;;6.15;100.00;99734.94;5109955;28;20199;-61
2022/11/29 01:51:32;;;;;;;13.23;10.37;;;;;;;6.19;100.00;99734.91;5109952;28;20205;-61
2022/11/29 01:54:01;;;;;;;13.43;10.77;;;;;;;6.18;100.00;99730.63;5109070;28;20199;-62
2022/11/29 01:56:30;;;;;;;13.73;11.17;;;;;;;6.11;100.00;99734.09;5110254;28;20287;-60
2022/11/29 01:58:57;;;;;;;13.37;10.23;;;;;;;6.19;100.00;99721.19;5110141;28;20199;-61
2022/11/29 02:01:24;;;;;;;14.00;10.80;;;;;;;6.28;100.00;99722.81;5109745;28;20507;-61
2022/11/29 02:03:51;;;;;;;14.63;11.07;;;;;;;6.26;100.00;99720.25;5109719;28;20674;-55
2022/11/29 02:06:18;;;;;;;14.67;11.83;;;;;;;6.14;100.00;99718.63;5109896;28;20201;-57
2022/11/29 02:08:45;;;;;;;15.80;11.10;;;;;;;6.12;100.00;99714.34;5110124;28;20198;-61
2022/11/29 02:11:48;;;;;;;11.63;10.23;;;;;;;6.07;100.00;99713.53;5110190;28;20667;-61
2022/11/29 02:14:45;;;;;;;16.40;11.70;;;;;;;6.09;100.00;99716.97;5109671;28;20208;-62
2022/11/29 02:17:25;;;;;;;18.80;12.00;;;;;;;6.01;100.00;99714.41;5109717;28;20199;-61
2022/11/29 02:20:27;;;;;;;16.30;11.90;;;;;;;5.88;100.00;99687.03;5109684;28;20248;-62
2022/11/29 02:23:03;;;;;;;16.10;11.70;;;;;;;6.10;100.00;99718.63;5109709;28;20194;-60
2022/11/29 02:25:54;;;;;;;16.43;12.00;;;;;;;6.19;100.00;99721.19;5109700;28;20285;-61
2022/11/29 02:28:52;;;;;;;15.40;11.83;;;;;;;6.23;100.00;99724.56;5109661;28;20249;-62
2022/11/29 02:31:55;;;;;;;15.13;11.10;;;;;;;6.26;100.00;99720.25;5109449;28;20233;-61
2022/11/29 02:34:53;;;;;;;15.13;11.70;;;;;;;6.26;100.00;99725.41;5109406;28;20263;-61
2022/11/29 02:37:47;;;;;;;13.73;11.13;;;;;;;6.33;100.00;99727.06;5109525;28;20195;-62
2022/11/29 02:40:31;;;;;;;14.33;11.37;;;;;;;6.26;100.00;99727.97;5109797;28;20237;-61
2022/11/29 02:43:19;;;;;;;15.27;11.90;;;;;;;6.29;100.00;99727.97;5109778;28;20215;-61
2022/11/29 02:46:11;;;;;;;17.67;12.33;;;;;;;6.19;100.00;99729.75;5109634;28;20199;-61
2022/11/29 02:48:55;;;;;;;17.67;12.43;;;;;;;6.24;100.00;99724.56;5109651;28;20569;-55
2022/11/29 02:51:30;;;;;;;20.20;14.30;;;;;;;6.24;100.00;99726.28;5109283;28;20254;-56
2022/11/29 02:54:04;;;;;;;21.53;14.40;;;;;;;6.24;100.00;99721.97;5109347;28;20688;-55
2022/11/29 02:56:37;;;;;;;16.90;13.27;;;;;;;6.16;100.00;99724.63;5109712;28;20592;-55
2022/11/29 02:59:11;;;;;;;18.93;13.97;;;;;;;6.10;100.00;99724.66;5109443;28;20315;-56
2022/11/29 03:01:50;;;;;;;23.30;16.03;;;;;;;5.97;100.00;99709.31;5109417;28;20195;-55
2022/11/29 03:04:27;;;;;;;22.77;15.77;;;;;;;6.01;100.00;99722.16;5110374;28;20187;-55
2022/11/29 03:07:03;;;;;;;23.30;16.00;;;;;;;6.04;100.00;99731.59;5113174;28;20267;-56
2022/11/29 03:09:38;;;;;;;20.57;14.70;;;;;;;6.10;100.00;99729.81;5112715;28;20201;-55
2022/11/29 03:12:17;;;;;;;25.53;16.40;;;;;;;6.05;100.00;99723.84;5113067;28;20198;-56
2022/11/29 03:14:56;;;;;;;21.57;15.97;;;;;;;6.00;100.00;99729.88;5112760;28;20195;-55
2022/11/29 03:17:32;;;;;;;25.73;17.17;;;;;;;5.93;100.00;99728.22;5112960;27;20277;-56
2022/11/29 03:20:23;;;;;;;26.20;18.53;;;;;;;5.97;100.00;99728.22;5112755;28;20222;-57
2022/11/29 03:23:08;;;;;;;26.77;17.87;;;;;;;5.89;100.00;99719.66;5112769;28;20202;-61
2022/11/29 03:25:40;;;;;;;28.93;18.87;;;;;;;5.88;100.00;99717.94;5112746;28;20205;-61
2022/11/29 03:28:14;;;;;;;26.90;18.10;;;;;;;5.92;100.00;99721.38;5112909;28;20670;-62
2022/11/29 03:30:46;;;;;;;28.00;19.00;;;;;;;5.99;100.00;99725.59;5112556;28;20217;-62
2022/11/29 03:33:21;;;;;;;32.07;19.70;;;;;;;6.01;100.00;99716.16;5112446;27;20749;-62
2022/11/29 03:35:55;;;;;;;26.53;18.87;;;;;;;6.01;100.00;99718.72;5112892;28;20198;-57
2022/11/29 03:38:29;;;;;;;28.10;19.10;;;;;;;6.07;100.00;99716.13;5112686;28;20201;-57
2022/11/29 03:41:04;;;;;;;28.87;19.67;;;;;;;6.03;100.00;99715.28;5112539;28;20194;-60
2022/11/29 03:43:41;;;;;;;25.60;17.37;;;;;;;5.96;100.00;99715.34;5112315;28;20198;-62
2022/11/29 03:46:12;;;;;;;27.60;18.87;;;;;;;5.92;100.00;99713.63;5112283;27;20190;-62
2022/11/29 03:48:45;;;;;;;28.10;18.03;;;;;;;6.06;100.00;99727.28;5112370;27;20197;-62
2022/11/29 03:51:16;;;;;;;24.07;17.20;;;;;;;6.07;100.00;99718.69;5112186;28;20222;-62
2022/11/29 03:53:51;;;;;;;25.13;18.10;;;;;;;6.13;100.00;99718.63;5111984;28;20205;-56
2022/11/29 03:56:26;;;;;;;25.90;17.67;;;;;;;6.13;100.00;99723.78;5111985;28;20236;-56
2022/11/29 03:59:03;;;;;;;23.40;17.07;;;;;;;6.12;100.00;99724.66;5112230;28;20194;-56
2022/11/29 04:02:04;;;;;;;24.47;16.93;;;;;;;6.10;100.00;99727.22;5111439;28;20252;-56
2022/11/29 04:05:09;;;;;;;26.13;18.17;;;;;;;5.99;100.00;99733.31;5108712;28;20611;-55
2022/11/29 04:07:49;;;;;;;29.30;17.97;;;;;;;6.05;100.00;99726.44;5112027;28;20194;-55
2022/11/29 04:10:54;;;;;;;27.63;18.33;;;;;;;6.11;100.00;99726.38;5111434;28;20322;-56
2022/11/29 04:13:54;;;;;;;27.93;18.77;;;;;;;5.88;100.00;99699.03;5110899;28;20226;-56
2022/11/29 04:16:39;;;;;;;30.87;20.00;;;;;;;6.14;100.00;99736.66;5100106;28;20203;-56
2022/11/29 04:19:57;;;;;;;31.20;19.97;;;;;;;6.10;100.00;99734.09;5111519;28;20747;-56
2022/11/29 04:22:41;;;;;;;31.20;20.20;;;;;;;6.19;100.00;99737.50;5111655;28;20194;-57
2022/11/29 04:25:25;;;;;;;35.07;20.87;;;;;;;6.16;100.00;99734.06;5110215;28;20286;-55
2022/11/29 04:28:24;;;;;;;36.67;21.03;;;;;;;6.17;100.00;99725.47;5109288;28;20228;-57
2022/11/29 04:31:01;;;;;;;33.53;22.00;;;;;;;6.15;100.00;99734.94;5091077;28;20238;-62
2022/11/29 04:34:03;;;;;;;35.73;22.60;;;;;;;6.23;100.00;99740.88;5108208;28;20190;-62
2022/11/29 04:37:17;;;;;;;37.37;23.30;;;;;;;6.19;100.00;99742.66;5092975;28;20201;-63
2022/11/29 04:40:14;;;;;;;37.57;23.10;;;;;;;6.28;100.00;99733.13;5070599;28;20200;-63
2022/11/29 04:42:57;;;;;;;35.80;22.83;;;;;;;6.28;100.00;99730.56;5095393;28;20191;-62
2022/11/29 04:45:59;;;;;;;38.53;23.67;;;;;;;6.14;100.00;99735.81;5110285;28;20208;-59
2022/11/29 04:48:51;;;;;;;39.47;24.47;;;;;;;6.25;100.00;99736.56;5098984;27;20230;-55
2022/11/29 04:51:30;;;;;;;35.57;22.83;;;;;;;6.33;100.00;99742.50;5108714;28;20214;-62
2022/11/29 04:54:08;;;;;;;36.43;23.27;;;;;;;6.17;100.00;99738.38;5109322;28;20317;-64
2022/11/29 04:56:42;;;;;;;40.97;25.57;;;;;;;6.19;100.00;99749.53;5109724;28;20771;-62
2022/11/29 04:59:19;;;;;;;41.30;23.87;;;;;;;6.31;100.00;99743.41;5102544;28;20222;-62
2022/11/29 05:01:57;;;;;;;40.27;25.30;;;;;;;6.13;100.00;99723.78;5109998;28;20214;-63
2022/11/29 05:04:33;;;;;;;38.90;23.37;;;;;;;6.29;100.00;99750.31;5105905;27;20659;-57
2022/11/29 05:07:06;;;;;;;39.40;24.13;;;;;;;6.45;100.00;99757.03;5090365;28;20218;-57
2022/11/29 05:09:43;;;;;;;39.53;24.37;;;;;;;6.49;100.00;99754.44;5090045;28;20750;-57
2022/11/29 05:12:20;;;;;;;38.10;23.43;;;;;;;6.53;100.00;99756.13;5089109;28;20233;-58
2022/11/29 05:15:05;;;;;;;40.80;23.10;;;;;;;6.50;100.00;99753.56;5090511;28;20202;-58
2022/11/29 05:17:44;;;;;;;39.13;24.37;;;;;;;6.44;100.00;99750.16;5105159;28;20190;-59
2022/11/29 05:20:23;;;;;;;38.33;24.63;;;;;;;6.44;100.00;99761.34;5107475;28;20253;-54
2022/11/29 05:23:04;;;;;;;39.87;23.93;;;;;;;6.35;100.00;99765.72;5110764;28;20802;-56
2022/11/29 05:25:37;;;;;;;39.87;25.23;;;;;;;6.24;100.00;99758.06;5109740;28;20285;-55
2022/11/29 05:28:10;;;;;;;40.87;25.60;;;;;;;6.32;100.00;99766.59;5109537;28;20194;-54
2022/11/29 05:31:04;;;;;;;42.43;25.90;;;;;;;6.30;100.00;99760.59;5109947;28;20222;-55
2022/11/29 05:33:52;;;;;;;42.50;25.77;;;;;;;6.34;100.00;99776.88;5096826;28;20765;-53
2022/11/29 05:36:32;;;;;;;42.80;24.90;;;;;;;6.32;100.00;99782.06;5109706;28;20201;-55
2022/11/29 05:39:20;;;;;;;42.10;25.67;;;;;;;6.22;100.00;99776.97;5110027;28;20201;-54
2022/11/29 05:42:00;;;;;;;42.37;25.50;;;;;;;6.23;100.00;99776.97;5110243;28;20277;-54
2022/11/29 05:44:33;;;;;;;41.53;25.40;;;;;;;6.31;100.00;99784.66;5110085;28;20200;-55
2022/11/29 05:47:02;;;;;;;45.87;26.10;;;;;;;6.27;100.00;99777.81;5110381;28;20206;-55
2022/11/29 05:49:42;;;;;;;42.47;25.73;;;;;;;6.32;100.00;99786.38;5110141;28;20191;-55
2022/11/29 05:52:35;;;;;;;41.87;25.27;;;;;;;6.31;100.00;99787.25;5109999;28;20224;-54
2022/11/29 05:55:21;;;;;;;44.87;25.70;;;;;;;6.22;100.00;99789.88;5107122;28;20201;-54
2022/11/29 05:57:56;;;;;;;38.13;22.80;;;;;;;6.21;100.00;99794.16;5102851;28;20216;-56
2022/11/29 06:00:24;;;;;;;40.53;23.90;;;;;;;6.08;100.00;99792.56;5108467;28;20217;-54
2022/11/29 06:02:58;;;;;;;42.80;23.93;;;;;;;6.18;100.00;99783.91;5109573;28;20222;-55
2022/11/29 06:05:34;;;;;;;39.03;22.23;;;;;;;6.20;100.00;99766.72;5108483;28;20247;-61
2022/11/29 06:08:06;;;;;;;38.53;22.53;;;;;;;6.34;100.00;99785.47;5105610;27;20766;-61
2022/11/29 06:10:38;;;;;;;37.40;22.83;;;;;;;6.32;100.00;99778.66;5108582;28;20228;-55
2022/11/29 06:13:18;;;;;;;36.70;21.20;;;;;;;6.33;100.00;99788.91;5108687;28;20218;-55
2022/11/29 06:16:16;;;;;;;34.73;21.20;;;;;;;6.33;100.00;99777.75;5108463;28;20705;-54
2022/11/29 06:19:16;;;;;;;37.20;22.23;;;;;;;6.25;100.00;99789.84;5108190;28;20223;-55
2022/11/29 06:21:52;;;;;;;37.83;22.03;;;;;;;6.35;100.00;99776.88;5081798;28;20256;-55
2022/11/29 06:24:50;;;;;;;35.93;22.80;;;;;;;6.34;100.00;99788.06;5108248;28;20210;-54
2022/11/29 06:27:38;;;;;;;33.07;21.37;;;;;;;6.48;100.00;99793.13;5107765;27;20210;-55
2022/11/29 06:30:10;;;;;;;34.40;21.20;;;;;;;6.40;100.00;99764.81;5109146;28;20226;-55
2022/11/29 06:32:46;;;;;;;34.00;22.27;;;;;;;6.53;100.00;99784.50;5108064;27;20593;-55
2022/11/29 06:35:36;;;;;;;32.13;20.97;;;;;;;6.50;100.00;99773.34;5108791;28;20313;-56
2022/11/29 06:38:09;;;;;;;32.07;19.53;;;;;;;6.59;100.00;99774.97;5108825;28;20197;-55
2022/11/29 06:40:37;;;;;;;32.87;19.90;;;;;;;6.60;100.00;99784.41;5111785;28;20193;-54
2022/11/29 06:43:04;;;;;;;34.97;20.43;;;;;;;6.63;100.00;99782.69;5113190;28;20594;-55
2022/11/29 06:45:32;;;;;;;34.53;21.23;;;;;;;6.62;100.00;99780.97;5113191;28;20199;-55
2022/11/29 06:48:03;;;;;;;34.03;20.03;;;;;;;6.66;100.00;99776.66;5113441;28;20199;-55
2022/11/29 06:50:40;;;;;;;32.53;19.60;;;;;;;6.70;100.00;99780.88;5113527;28;20716;-54
2022/11/29 06:53:20;;;;;;;33.67;21.43;;;;;;;6.75;100.00;99787.75;5113423;28;20578;-61
2022/11/29 06:55:57;;;;;;;37.03;20.80;;;;;;;6.60;100.00;99784.41;5113055;28;20198;-60
2022/11/29 06:58:37;;;;;;;35.40;22.57;;;;;;;6.72;100.00;99776.59;5113054;28;20195;-55
2022/11/29 07:01:12;;;;;;;40.27;21.57;;;;;;;6.79;100.00;99783.38;5113267;28;20589;-55
2022/11/29 07:04:07;;;;;;;36.23;21.37;;;;;;;6.76;100.00;99788.59;5112427;28;20190;-54
2022/11/29 07:06:35;;;;;;;33.70;20.57;;;;;;;6.77;100.00;99780.00;5111133;28;20207;-55
2022/11/29 07:09:13;;;;;;;40.37;22.47;;;;;;;6.93;100.00;99781.53;5112540;28;20270;-56
2022/11/29 07:11:41;;;;;;;40.97;22.33;;;;;;;6.93;100.00;99787.56;5112641;28;20279;-55
2022/11/29 07:14:09;;;;;;;36.23;22.03;;;;;;;6.87;100.00;99784.19;5112869;28;20243;-55
2022/11/29 07:16:45;;;;;;;55.17;28.23;;;;;;;6.98;100.00;99790.09;5112378;27;20190;-54
2022/11/29 07:19:19;;;;;;;42.10;24.43;;;;;;;6.99;100.00;99785.78;5109686;28;20608;-55
2022/11/29 07:21:59;;;;;;;41.83;26.07;;;;;;;6.86;100.00;99783.34;5112478;28;20212;-55
2022/11/29 07:24:40;;;;;;;34.73;22.40;;;;;;;6.80;100.00;99790.25;5112545;28;20194;-55
2022/11/29 07:27:18;;;;;;;36.93;22.27;;;;;;;6.95;100.00;99784.97;5112854;28;20693;-55
2022/11/29 07:30:01;;;;;;;49.87;25.60;;;;;;;6.97;100.00;99788.38;5112832;28;20249;-55
2022/11/29 07:32:37;;;;;;;43.13;25.27;;;;;;;6.95;100.00;99790.13;5112422;28;20218;-55
2022/11/29 07:35:13;;;;;;;49.17;28.83;;;;;;;6.92;100.00;99780.69;5112676;28;20578;-55
2022/11/29 07:37:53;;;;;;;65.13;28.07;;;;;;;6.98;100.00;99784.09;5112670;28;20666;-54
2022/11/29 07:40:31;;;;;;;66.63;23.73;;;;;;;6.98;100.00;99784.94;5112238;28;20293;-55
2022/11/29 07:43:13;;;;;;;50.07;24.00;;;;;;;6.94;100.00;99780.66;5112696;27;20193;-55
2022/11/29 07:45:40;;;;;;;37.67;20.80;;;;;;;6.98;100.00;99784.94;5091724;28;20206;-54
2022/11/29 07:48:07;;;;;;;34.23;19.53;;;;;;;7.00;100.00;99784.94;5109871;28;20187;-55
2022/11/29 07:50:35;;;;;;;33.33;20.40;;;;;;;7.06;100.00;99782.28;5112050;27;20666;-54
2022/11/29 07:53:03;;;;;;;32.40;19.17;;;;;;;7.12;100.00;99783.06;5111347;28;20630;-59
2022/11/29 07:55:33;;;;;;;49.63;21.07;;;;;;;7.20;100.00;99786.44;5111958;27;20202;-59
2022/11/29 07:58:00;;;;;;;43.70;21.13;;;;;;;7.23;100.00;99786.38;5111592;28;20429;-59
2022/11/29 08:00:27;;;;;;;30.20;19.27;;;;;;;7.29;100.00;99788.91;5111076;28;20201;-59
2022/11/29 08:02:54;;;;;;;33.57;20.53;;;;;;;7.33;100.00;99786.28;5111591;28;20297;-60
2022/11/29 08:05:21;;;;;;;29.63;19.00;;;;;;;7.30;100.00;99792.34;5112032;28;20195;-66
2022/11/29 08:07:48;;;;;;;32.47;19.13;;;;;;;7.42;100.00;99801.69;5111963;28;20281;-66
2022/11/29 08:10:17;;;;;;;47.63;21.03;;;;;;;7.42;100.00;99791.34;5112051;28;20722;-53
2022/11/29 08:12:48;;;;;;;30.37;18.80;;;;;;;7.52;100.00;99801.53;5111714;28;20576;-58
2022/11/29 08:15:16;;;;;;;22.70;15.33;;;;;;;7.55;100.00;99796.34;5111582;28;20289;-55
2022/11/29 08:17:43;;;;;;;25.17;15.67;;;;;;;7.48;100.00;99797.28;5111522;28;20201;-55
2022/11/29 08:20:12;;;;;;;39.07;16.87;;;;;;;7.52;100.00;99798.09;5111559;28;20675;-62
2022/11/29 08:22:39;;;;;;;36.80;15.63;;;;;;;7.50;100.00;99794.69;5111497;28;20581;-54
2022/11/29 08:25:07;;;;;;;27.27;14.57;;;;;;;7.54;100.00;99793.78;5111507;28;20202;-60
2022/11/29 08:27:36;;;;;;;28.77;13.57;;;;;;;7.42;100.00;99801.69;5098894;28;20223;-61
2022/11/29 08:30:04;;;;;;;18.80;13.77;;;;;;;7.56;100.00;99797.22;5090071;28;20219;-61
2022/11/29 08:32:31;;;;;;;26.67;12.93;;;;;;;7.67;100.00;99792.75;5090232;28;20231;-53
2022/11/29 08:34:58;;;;;;;26.23;11.90;;;;;;;7.65;100.00;99794.50;5106977;28;20458;-54
2022/11/29 08:37:25;;;;;;;22.57;13.20;;;;;;;7.60;100.00;99797.13;5110541;28;20206;-55
2022/11/29 08:39:52;;;;;;;27.40;12.80;;;;;;;7.63;100.00;99785.91;5110789;28;20190;-56
2022/11/29 08:42:19;;;;;;;29.30;13.40;;;;;;;7.57;100.00;99791.13;5111297;28;20528;-54
2022/11/29 08:44:46;;;;;;;20.63;11.70;;;;;;;7.72;100.00;99788.38;5111209;28;20191;-55
2022/11/29 08:50:02;;;;;;;43.73;13.80;;;;;;;7.80;100.00;99788.25;5111082;28;20201;-54
2022/11/29 08:55:14;;;;;;;21.77;13.90;;;;;;;7.72;100.00;99769.44;5110618;28;20213;-55
2022/11/29 08:57:41;;;;;;;21.20;12.13;;;;;;;7.75;100.00;99783.19;5110304;28;20191;-54
2022/11/29 09:00:09;;;;;;;16.30;10.50;;;;;;;7.72;100.00;99772.03;5110836;28;20201;-54
2022/11/29 09:02:38;;;;;;;17.13;10.93;;;;;;;7.77;100.00;99778.00;5110068;28;20581;-54
2022/11/29 09:05:06;;;;;;;17.20;10.80;;;;;;;7.69;100.00;99769.47;5110482;28;20205;-54
2022/11/29 09:07:33;;;;;;;18.83;12.23;;;;;;;7.83;100.00;99771.00;5110054;28;20197;-61
2022/11/29 09:10:03;;;;;;;16.97;11.23;;;;;;;7.88;100.00;99768.38;5110795;28;20209;-61
2022/11/29 09:12:31;;;;;;;14.43;10.10;;;;;;;7.84;100.00;99771.84;5110502;28;20257;-62
2022/11/29 09:14:58;;;;;;;17.30;11.10;;;;;;;8.09;100.00;99767.19;5110610;28;20503;-62
2022/11/29 09:17:25;;;;;;;14.67;11.17;;;;;;;8.01;100.00;99762.97;5110343;28;20198;-62
2022/11/29 09:19:53;;;;;;;23.20;12.83;;;;;;;7.98;100.00;99762.19;5110336;28;20226;-61
2022/11/29 09:22:20;;;;;;;21.93;13.17;;;;;;;7.93;100.00;99754.47;5110518;28;20653;-61
2022/11/29 09:24:47;;;;;;;24.57;12.73;;;;;;;8.19;100.00;99761.00;5110528;28;20620;-54
2022/11/29 09:27:14;;;;;;;21.10;12.93;;;;;;;8.15;100.00;99749.00;5110167;28;20248;-54
2022/11/29 09:29:41;;;;;;;20.60;12.47;;;;;;;8.03;100.00;99750.88;5110200;28;20579;-54
2022/11/29 09:32:08;;;;;;;18.27;12.23;;;;;;;8.05;100.00;99750.00;5110513;28;20597;-53
2022/11/29 09:34:35;;;;;;;17.23;11.77;;;;;;;8.12;100.00;99742.16;5110087;28;20198;-54
2022/11/29 09:37:05;;;;;;;19.20;13.03;;;;;;;8.27;100.00;99734.16;5105080;28;20215;-54
2022/11/29 09:39:32;;;;;;;20.50;13.50;;;;;;;8.32;100.00;99724.63;5105585;27;20690;-53
2022/11/29 09:42:19;;;;;;;17.13;12.63;;;;;;;8.30;100.00;99723.75;5106743;28;20694;-54
2022/11/29 09:44:56;;;;;;;19.67;13.43;;;;;;;8.22;100.00;99729.94;5107326;27;20211;-55
2022/11/29 09:47:38;;;;;;;22.60;14.73;;;;;;;8.17;100.00;99723.97;5106654;28;20256;-54
2022/11/29 09:50:22;;;;;;;21.07;13.77;;;;;;;8.22;100.00;99724.78;5109550;27;20233;-55
2022/11/29 09:53:05;;;;;;;20.83;12.93;;;;;;;8.24;100.00;99733.38;5109163;28;20299;-53
2022/11/29 09:55:54;;;;;;;21.17;12.83;;;;;;;8.26;100.00;99726.41;5108787;28;20198;-54
2022/11/29 09:58:27;;;;;;;20.53;13.03;;;;;;;8.19;100.00;99719.63;5109863;28;20252;-54
2022/11/29 10:00:58;;;;;;;22.37;13.77;;;;;;;8.15;100.00;99717.97;5109500;28;20194;-54
2022/11/29 10:03:29;;;;;;;26.27;14.40;;;;;;;8.28;100.00;99725.50;5109098;28;20195;-54
2022/11/29 10:06:02;;;;;;;19.80;13.50;;;;;;;8.46;100.00;99723.56;5107341;28;20204;-54
2022/11/29 10:08:35;;;;;;;22.83;15.30;;;;;;;8.47;100.00;99725.22;5109739;28;20608;-54
2022/11/29 10:11:16;;;;;;;24.07;15.93;;;;;;;8.46;100.00;99719.25;5109881;28;20578;-54
2022/11/29 10:13:47;;;;;;;21.90;13.90;;;;;;;8.55;100.00;99720.81;5110186;28;20194;-54
2022/11/29 10:16:21;;;;;;;19.87;14.40;;;;;;;8.57;100.00;99725.09;5114190;28;20293;-54
2022/11/29 10:18:54;;;;;;;21.97;14.03;;;;;;;8.56;100.00;99720.78;5113417;28;20236;-54
2022/11/29 10:21:26;;;;;;;19.67;14.13;;;;;;;8.60;100.00;99712.06;5093178;28;20195;-55
2022/11/29 10:24:00;;;;;;;18.50;13.53;;;;;;;8.56;100.00;99709.56;5093467;28;20195;-54
2022/11/29 10:26:27;;;;;;;19.80;14.10;;;;;;;8.61;100.00;99716.38;5093519;28;20195;-54
2022/11/29 10:28:56;;;;;;;16.33;12.83;;;;;;;8.56;100.00;99713.03;5093582;28;20195;-54
2022/11/29 10:31:26;;;;;;;14.07;11.37;;;;;;;8.54;100.00;99706.16;5093245;28;20199;-54
2022/11/29 10:33:53;;;;;;;21.13;12.57;;;;;;;8.54;100.00;99712.19;5093510;28;20195;-53
2022/11/29 10:36:27;;;;;;;15.23;11.67;;;;;;;8.66;100.00;99714.56;5110464;28;20697;-54
2022/11/29 10:39:01;;;;;;;16.83;11.57;;;;;;;8.71;100.00;99714.47;5113327;28;20209;-61
2022/11/29 10:41:28;;;;;;;15.33;10.53;;;;;;;8.82;100.00;99707.34;5113566;28;20315;-61
2022/11/29 10:43:57;;;;;;;13.97;11.10;;;;;;;8.88;100.00;99707.25;5113950;28;20285;-61
2022/11/29 10:46:30;;;;;;;12.57;10.43;;;;;;;8.90;100.00;99704.66;5113423;28;20628;-62
2022/11/29 10:48:59;;;;;;;11.60;9.40;;;;;;;8.86;100.00;99701.25;5113260;28;20230;-62
2022/11/29 10:51:26;;;;;;;11.23;8.63;;;;;;;8.81;100.00;99692.69;5113292;27;20194;-61
2022/11/29 10:53:54;;;;;;;9.13;7.77;;;;;;;8.70;100.00;99705.84;5113586;28;20191;-62
2022/11/29 10:56:28;;;;;;;24.77;9.23;;;;;;;8.76;100.00;99707.47;5113423;28;20614;-62
2022/11/29 10:58:59;;;;;;;17.50;8.80;;;;;;;8.69;100.00;99704.13;5113167;28;20202;-60
2022/11/29 11:01:27;;;;;;;17.80;9.20;;;;;;;8.71;100.00;99698.94;5112886;28;20206;-61
2022/11/29 11:03:56;;;;;;;16.97;10.00;;;;;;;8.71;100.00;99694.63;5113489;28;20658;-61
2022/11/29 11:06:26;;;;;;;12.57;8.63;;;;;;;8.79;100.00;99697.09;5113046;28;20194;-62
2022/11/29 11:08:55;;;;;;;9.37;7.80;;;;;;;8.77;100.00;99695.41;5113129;28;20198;-62
2022/11/29 11:11:30;;;;;;;18.73;9.60;;;;;;;8.85;100.00;99688.34;5113077;28;20194;-62
2022/11/29 11:13:59;;;;;;;15.13;8.97;;;;;;;8.92;100.00;99693.34;5112984;28;20207;-54
2022/11/29 11:16:26;;;;;;;9.63;8.47;;;;;;;8.77;100.00;99682.47;5112895;28;20195;-54
2022/11/29 11:18:53;;;;;;;15.50;8.93;;;;;;;8.61;100.00;99685.31;5113001;28;20445;-55
2022/11/29 11:21:23;;;;;;;11.03;8.47;;;;;;;8.70;100.00;99682.56;5112965;28;20203;-55
2022/11/29 11:23:56;;;;;;;37.97;11.73;;;;;;;8.88;100.00;99677.94;5112919;28;20297;-54
2022/11/29 11:26:24;;;;;;;34.13;9.70;;;;;;;8.93;100.00;99678.69;5112336;28;20226;-61
2022/11/29 11:28:56;;;;;;;19.37;8.97;;;;;;;8.97;100.00;99680.34;5111891;28;20200;-66
2022/11/29 11:31:34;;;;;;;13.47;9.07;;;;;;;8.88;100.00;99685.69;5111214;28;20198;-62
2022/11/29 11:34:25;;;;;;;13.60;8.70;;;;;;;8.83;100.00;99682.31;5112569;28;20652;-66
2022/11/29 11:36:52;;;;;;;7.50;6.80;;;;;;;8.93;100.00;99683.84;5103420;28;20666;-66
2022/11/29 11:39:21;;;;;;;12.73;8.10;;;;;;;8.93;100.00;99679.53;5112712;28;20216;-66
2022/11/29 11:44:40;;;;;;;7.40;6.30;;;;;;;8.91;100.00;99680.47;5112420;28;20350;-66
2022/11/29 11:47:13;;;;;;;8.73;7.83;;;;;;;8.98;100.00;99676.88;5112834;28;20199;-66
2022/11/29 11:49:48;;;;;;;8.23;7.43;;;;;;;8.95;100.00;99676.91;5112153;28;20205;-66
2022/11/29 11:52:20;;;;;;;25.00;9.23;;;;;;;8.98;100.00;99682.03;5112298;28;20226;-60
2022/11/29 11:54:50;;;;;;;11.23;8.40;;;;;;;8.88;100.00;99675.34;5112357;28;20597;-60
2022/11/29 11:57:18;;;;;;;11.63;7.87;;;;;;;8.93;100.00;99684.72;5112119;28;20198;-60
2022/11/29 11:59:49;;;;;;;14.70;8.47;;;;;;;8.93;100.00;99679.53;5112331;28;20205;-60
2022/11/29 12:02:28;;;;;;;9.60;7.83;;;;;;;9.00;100.00;99681.13;5112335;28;20191;-60